Метеостанция


АнтоновUKKM 160900Z AUTO 04003MPS 360V090 9999 // NCD 28/13 Q1015
БориспольUKBB 160900Z 08004MPS 020V120 CAVOK 27/17 Q1015 R88/CLRD// NOSIG
Гаврышовка (Винница)UKWW 160900Z VRB01MPS 9999 NSC 29/17 Q1015 R31/0///65 NOSIG
ДнепропетровскUKDD 160900Z 34007MPS CAVOK 31/14 Q1012 R26/090070 NOSIG
ЖуляныUKKK 160900Z 04004MPS 360V070 CAVOK 28/14 Q1015 R08/110060 NOSIG
Запорожье(Мокрая)UKDE 160900Z 01004MPS 320V040 CAVOK 31/13 Q1011 R02R/090070 NOSIG
Ивано-ФранковскUKLI 160900Z VRB01MPS CAVOK 29/17 Q1014 R10/090070 NOSIG
Кривой РогUKDR 160900Z 01006MPS 330V060 CAVOK 30/14 Q1013 R36/09//70 NOSIG
ЛьвовUKLL 160900Z 23002MPS 150V310 CAVOK 28/21 Q1015 R31/CLRD// NOSIG
НиколаевUKON 151600Z 04003MPS 9999 FEW///CB 28/16 Q1012 R04/090068 NOSIG
ОдессаUKOO 160900Z 10006MPS 060V130 CAVOK 32/10 Q1013 R16/090060 NOSIG
РовноUKLR 160900Z 20002MPS 130V250 CAVOK 30/17 Q1014 NOSIG
УжгородUKLU 160900Z 25001MPS 9999 NSC 30/20 Q1014 R28/090070 NOSIG
ХарьковUKHH 160900Z 36004MPS 320V030 9999 BKN047 28/13 Q1011 R25/0///81 NOSIG
ЧерновцыUKLN 160700Z 09002MPS 060V140 CAVOK 27/20 Q1015 R15/09//70 NOSIG
Скачать:
Скачать этот файл (Metar_шпаргалка.jpg)Расшифровка METAR[ ]4799 Кб
Вся информация, которая имеется в использовании на сайте и доступная для скачивания, получена исключительно из открытых источников информации сети Интернет, всякое совпадение с данными, имеющими ограничения в доступе, случайное и не является преднамеренным.
^ Наверх